sensor_id;sensor_type;location;lat;lon;timestamp;temperature;humidity
11264;DHT22;5689;48.798;9.070;2023-07-02T00:00:45;16.40;99.90
11264;DHT22;5689;48.798;9.070;2023-07-02T00:03:14;16.40;99.90
11264;DHT22;5689;48.798;9.070;2023-07-02T00:05:43;16.40;99.90
11264;DHT22;5689;48.798;9.070;2023-07-02T00:08:11;16.30;99.90
11264;DHT22;5689;48.798;9.070;2023-07-02T00:10:39;16.30;99.90
11264;DHT22;5689;48.798;9.070;2023-07-02T00:13:07;16.30;99.90
11264;DHT22;5689;48.798;9.070;2023-07-02T00:15:35;16.20;99.90
11264;DHT22;5689;48.798;9.070;2023-07-02T00:18:04;16.20;99.90
11264;DHT22;5689;48.798;9.070;2023-07-02T00:20:32;16.20;99.90
11264;DHT22;5689;48.798;9.070;2023-07-02T00:23:08;16.20;99.90
11264;DHT22;5689;48.798;9.070;2023-07-02T00:25:37;16.20;99.90
11264;DHT22;5689;48.798;9.070;2023-07-02T00:28:05;16.20;99.90
11264;DHT22;5689;48.798;9.070;2023-07-02T00:30:33;16.40;99.90
11264;DHT22;5689;48.798;9.070;2023-07-02T00:33:01;16.30;99.90
11264;DHT22;5689;48.798;9.070;2023-07-02T00:35:29;16.20;99.90
11264;DHT22;5689;48.798;9.070;2023-07-02T00:37:57;16.30;99.90
11264;DHT22;5689;48.798;9.070;2023-07-02T00:40:28;16.30;99.90
11264;DHT22;5689;48.798;9.070;2023-07-02T00:42:56;16.40;99.90
11264;DHT22;5689;48.798;9.070;2023-07-02T00:45:24;16.80;99.90
11264;DHT22;5689;48.798;9.070;2023-07-02T00:47:54;16.60;99.90
11264;DHT22;5689;48.798;9.070;2023-07-02T00:50:23;16.60;99.90
11264;DHT22;5689;48.798;9.070;2023-07-02T00:52:51;16.40;99.90
11264;DHT22;5689;48.798;9.070;2023-07-02T00:55:20;16.50;99.90
11264;DHT22;5689;48.798;9.070;2023-07-02T00:57:50;16.30;99.90
11264;DHT22;5689;48.798;9.070;2023-07-02T01:00:19;16.40;99.90
11264;DHT22;5689;48.798;9.070;2023-07-02T01:02:53;16.40;99.90
11264;DHT22;5689;48.798;9.070;2023-07-02T01:05:24;16.40;99.90
11264;DHT22;5689;48.798;9.070;2023-07-02T01:07:52;16.50;99.90
11264;DHT22;5689;48.798;9.070;2023-07-02T01:10:20;16.80;99.90
11264;DHT22;5689;48.798;9.070;2023-07-02T01:12:50;16.60;99.90
11264;DHT22;5689;48.798;9.070;2023-07-02T01:15:18;16.50;99.90
11264;DHT22;5689;48.798;9.070;2023-07-02T01:17:48;16.50;99.90
11264;DHT22;5689;48.798;9.070;2023-07-02T01:20:18;16.50;99.90
11264;DHT22;5689;48.798;9.070;2023-07-02T01:22:48;16.50;99.90
11264;DHT22;5689;48.798;9.070;2023-07-02T01:25:18;16.40;99.90
11264;DHT22;5689;48.798;9.070;2023-07-02T01:27:51;16.30;99.90
11264;DHT22;5689;48.798;9.070;2023-07-02T01:30:20;16.20;99.90
11264;DHT22;5689;48.798;9.070;2023-07-02T01:32:48;16.20;99.90
11264;DHT22;5689;48.798;9.070;2023-07-02T01:35:18;16.20;99.90
11264;DHT22;5689;48.798;9.070;2023-07-02T01:37:46;16.10;99.90
11264;DHT22;5689;48.798;9.070;2023-07-02T01:40:14;16.00;99.90
11264;DHT22;5689;48.798;9.070;2023-07-02T01:42:42;16.10;99.90
11264;DHT22;5689;48.798;9.070;2023-07-02T01:45:11;16.00;99.90
11264;DHT22;5689;48.798;9.070;2023-07-02T01:47:39;16.00;99.90
11264;DHT22;5689;48.798;9.070;2023-07-02T01:50:09;16.10;99.90
11264;DHT22;5689;48.798;9.070;2023-07-02T01:52:39;16.00;99.90
11264;DHT22;5689;48.798;9.070;2023-07-02T01:55:08;16.00;99.90
11264;DHT22;5689;48.798;9.070;2023-07-02T01:57:36;16.10;99.90
11264;DHT22;5689;48.798;9.070;2023-07-02T02:00:06;16.10;99.90
11264;DHT22;5689;48.798;9.070;2023-07-02T02:02:42;16.10;99.90
11264;DHT22;5689;48.798;9.070;2023-07-02T02:05:10;16.00;99.90
11264;DHT22;5689;48.798;9.070;2023-07-02T02:07:41;16.10;99.90
11264;DHT22;5689;48.798;9.070;2023-07-02T02:10:09;16.10;99.90
11264;DHT22;5689;48.798;9.070;2023-07-02T02:12:38;16.20;99.90
11264;DHT22;5689;48.798;9.070;2023-07-02T02:15:07;16.30;99.90
11264;DHT22;5689;48.798;9.070;2023-07-02T02:17:35;16.30;99.90
11264;DHT22;5689;48.798;9.070;2023-07-02T02:20:05;16.40;99.90
11264;DHT22;5689;48.798;9.070;2023-07-02T02:22:34;16.50;99.90
11264;DHT22;5689;48.798;9.070;2023-07-02T02:25:06;16.50;99.90
11264;DHT22;5689;48.798;9.070;2023-07-02T02:27:34;16.60;99.90
11264;DHT22;5689;48.798;9.070;2023-07-02T02:30:03;16.60;99.90
11264;DHT22;5689;48.798;9.070;2023-07-02T02:32:33;16.70;99.90
11264;DHT22;5689;48.798;9.070;2023-07-02T02:35:02;16.70;99.90
11264;DHT22;5689;48.798;9.070;2023-07-02T02:37:33;16.80;99.90
11264;DHT22;5689;48.798;9.070;2023-07-02T02:40:07;16.80;99.90
11264;DHT22;5689;48.798;9.070;2023-07-02T02:42:38;16.80;99.90
11264;DHT22;5689;48.798;9.070;2023-07-02T02:45:08;16.80;99.90
11264;DHT22;5689;48.798;9.070;2023-07-02T02:47:36;16.80;99.90
11264;DHT22;5689;48.798;9.070;2023-07-02T02:50:06;16.60;99.90
11264;DHT22;5689;48.798;9.070;2023-07-02T02:52:34;16.60;99.90
11264;DHT22;5689;48.798;9.070;2023-07-02T02:55:03;16.60;99.90
11264;DHT22;5689;48.798;9.070;2023-07-02T02:57:32;16.50;99.90
11264;DHT22;5689;48.798;9.070;2023-07-02T03:00:00;16.50;99.90
11264;DHT22;5689;48.798;9.070;2023-07-02T03:02:29;16.40;99.90
11264;DHT22;5689;48.798;9.070;2023-07-02T03:04:57;16.40;99.90
11264;DHT22;5689;48.798;9.070;2023-07-02T03:07:29;16.30;99.90
11264;DHT22;5689;48.798;9.070;2023-07-02T03:09:57;16.20;99.90
11264;DHT22;5689;48.798;9.070;2023-07-02T03:12:26;16.00;99.90
11264;DHT22;5689;48.798;9.070;2023-07-02T03:14:55;15.90;99.90
11264;DHT22;5689;48.798;9.070;2023-07-02T03:17:24;15.70;99.90
11264;DHT22;5689;48.798;9.070;2023-07-02T03:19:52;15.70;99.90
11264;DHT22;5689;48.798;9.070;2023-07-02T03:22:20;15.60;99.90
11264;DHT22;5689;48.798;9.070;2023-07-02T03:24:48;15.60;99.90
11264;DHT22;5689;48.798;9.070;2023-07-02T03:27:17;15.30;99.90
11264;DHT22;5689;48.798;9.070;2023-07-02T03:29:45;15.30;99.90
11264;DHT22;5689;48.798;9.070;2023-07-02T03:32:15;15.30;99.90
11264;DHT22;5689;48.798;9.070;2023-07-02T03:34:44;15.30;99.90
11264;DHT22;5689;48.798;9.070;2023-07-02T03:37:15;15.30;99.90
11264;DHT22;5689;48.798;9.070;2023-07-02T03:39:43;15.40;99.90
11264;DHT22;5689;48.798;9.070;2023-07-02T03:42:11;15.50;99.90
11264;DHT22;5689;48.798;9.070;2023-07-02T03:44:39;15.40;99.90
11264;DHT22;5689;48.798;9.070;2023-07-02T03:47:07;15.40;99.90
11264;DHT22;5689;48.798;9.070;2023-07-02T03:49:37;15.40;99.90
11264;DHT22;5689;48.798;9.070;2023-07-02T03:52:06;15.50;99.90
11264;DHT22;5689;48.798;9.070;2023-07-02T03:54:34;15.30;99.90
11264;DHT22;5689;48.798;9.070;2023-07-02T03:57:03;15.30;99.90
11264;DHT22;5689;48.798;9.070;2023-07-02T03:59:31;15.30;99.90
11264;DHT22;5689;48.798;9.070;2023-07-02T04:01:59;15.40;99.90
11264;DHT22;5689;48.798;9.070;2023-07-02T04:04:27;15.20;99.90
11264;DHT22;5689;48.798;9.070;2023-07-02T04:06:56;15.20;99.90
11264;DHT22;5689;48.798;9.070;2023-07-02T04:09:25;15.20;99.90
11264;DHT22;5689;48.798;9.070;2023-07-02T04:11:53;15.40;99.90
11264;DHT22;5689;48.798;9.070;2023-07-02T04:14:21;15.40;99.90
11264;DHT22;5689;48.798;9.070;2023-07-02T04:16:49;15.30;99.90
11264;DHT22;5689;48.798;9.070;2023-07-02T04:19:17;15.20;99.90
11264;DHT22;5689;48.798;9.070;2023-07-02T04:21:45;15.40;99.90
11264;DHT22;5689;48.798;9.070;2023-07-02T04:24:15;15.40;99.90
11264;DHT22;5689;48.798;9.070;2023-07-02T04:26:43;15.40;99.90
11264;DHT22;5689;48.798;9.070;2023-07-02T04:29:11;15.50;99.90
11264;DHT22;5689;48.798;9.070;2023-07-02T04:31:39;15.60;99.90
11264;DHT22;5689;48.798;9.070;2023-07-02T04:34:08;15.70;99.90
11264;DHT22;5689;48.798;9.070;2023-07-02T04:36:37;15.70;99.90
11264;DHT22;5689;48.798;9.070;2023-07-02T04:39:05;15.60;99.90
11264;DHT22;5689;48.798;9.070;2023-07-02T04:41:34;15.70;99.90
11264;DHT22;5689;48.798;9.070;2023-07-02T04:44:02;15.60;99.90
11264;DHT22;5689;48.798;9.070;2023-07-02T04:46:30;15.80;99.90
11264;DHT22;5689;48.798;9.070;2023-07-02T04:48:58;15.90;99.90
11264;DHT22;5689;48.798;9.070;2023-07-02T04:51:26;16.00;99.90
11264;DHT22;5689;48.798;9.070;2023-07-02T04:53:54;16.10;99.90
11264;DHT22;5689;48.798;9.070;2023-07-02T04:56:22;16.30;99.90
11264;DHT22;5689;48.798;9.070;2023-07-02T04:58:52;16.40;99.90
11264;DHT22;5689;48.798;9.070;2023-07-02T05:01:20;16.40;99.90
11264;DHT22;5689;48.798;9.070;2023-07-02T05:03:48;16.60;99.90
11264;DHT22;5689;48.798;9.070;2023-07-02T05:06:16;16.60;99.90
11264;DHT22;5689;48.798;9.070;2023-07-02T05:08:44;16.40;99.90
11264;DHT22;5689;48.798;9.070;2023-07-02T05:11:12;16.30;99.90
11264;DHT22;5689;48.798;9.070;2023-07-02T05:13:40;16.20;99.90
11264;DHT22;5689;48.798;9.070;2023-07-02T05:16:09;16.30;99.90
11264;DHT22;5689;48.798;9.070;2023-07-02T05:18:38;16.30;99.90
11264;DHT22;5689;48.798;9.070;2023-07-02T05:21:06;16.20;99.90
11264;DHT22;5689;48.798;9.070;2023-07-02T05:23:34;16.20;99.90
11264;DHT22;5689;48.798;9.070;2023-07-02T05:26:02;16.20;99.90
11264;DHT22;5689;48.798;9.070;2023-07-02T05:28:31;16.60;99.90
11264;DHT22;5689;48.798;9.070;2023-07-02T05:30:59;16.80;99.90
11264;DHT22;5689;48.798;9.070;2023-07-02T05:33:28;17.10;99.90
11264;DHT22;5689;48.798;9.070;2023-07-02T05:35:58;17.40;99.90
11264;DHT22;5689;48.798;9.070;2023-07-02T05:38:26;17.70;99.90
11264;DHT22;5689;48.798;9.070;2023-07-02T05:40:54;17.80;99.90
11264;DHT22;5689;48.798;9.070;2023-07-02T05:43:22;18.20;99.90
11264;DHT22;5689;48.798;9.070;2023-07-02T05:45:51;18.00;99.90
11264;DHT22;5689;48.798;9.070;2023-07-02T05:48:19;17.90;99.90
11264;DHT22;5689;48.798;9.070;2023-07-02T05:50:49;17.90;99.90
11264;DHT22;5689;48.798;9.070;2023-07-02T05:53:17;18.00;99.90
11264;DHT22;5689;48.798;9.070;2023-07-02T05:55:45;17.90;99.90
11264;DHT22;5689;48.798;9.070;2023-07-02T05:58:13;18.00;99.90
11264;DHT22;5689;48.798;9.070;2023-07-02T06:00:41;18.10;99.90
11264;DHT22;5689;48.798;9.070;2023-07-02T06:03:16;18.30;99.90
11264;DHT22;5689;48.798;9.070;2023-07-02T06:05:46;18.50;99.90
11264;DHT22;5689;48.798;9.070;2023-07-02T06:08:17;18.60;99.90
11264;DHT22;5689;48.798;9.070;2023-07-02T06:10:46;18.80;99.90
11264;DHT22;5689;48.798;9.070;2023-07-02T06:13:15;19.10;99.90
11264;DHT22;5689;48.798;9.070;2023-07-02T06:15:43;18.90;99.90
11264;DHT22;5689;48.798;9.070;2023-07-02T06:18:11;19.10;99.90
11264;DHT22;5689;48.798;9.070;2023-07-02T06:20:39;19.30;99.90
11264;DHT22;5689;48.798;9.070;2023-07-02T06:23:07;19.80;99.90
11264;DHT22;5689;48.798;9.070;2023-07-02T06:25:37;19.70;99.90
11264;DHT22;5689;48.798;9.070;2023-07-02T06:28:05;19.70;99.90
11264;DHT22;5689;48.798;9.070;2023-07-02T06:30:33;19.70;99.90
11264;DHT22;5689;48.798;9.070;2023-07-02T06:33:01;19.60;99.90
11264;DHT22;5689;48.798;9.070;2023-07-02T06:35:29;20.00;99.90
11264;DHT22;5689;48.798;9.070;2023-07-02T06:37:57;20.30;99.90
11264;DHT22;5689;48.798;9.070;2023-07-02T06:40:25;20.70;99.90
11264;DHT22;5689;48.798;9.070;2023-07-02T06:42:54;19.90;99.90
11264;DHT22;5689;48.798;9.070;2023-07-02T06:45:22;19.30;99.90
11264;DHT22;5689;48.798;9.070;2023-07-02T06:47:50;18.80;99.90
11264;DHT22;5689;48.798;9.070;2023-07-02T06:50:18;19.00;99.90
11264;DHT22;5689;48.798;9.070;2023-07-02T06:52:46;19.30;99.90
11264;DHT22;5689;48.798;9.070;2023-07-02T06:55:14;19.80;99.90
11264;DHT22;5689;48.798;9.070;2023-07-02T06:57:43;19.50;99.90
11264;DHT22;5689;48.798;9.070;2023-07-02T07:00:14;19.50;99.90
11264;DHT22;5689;48.798;9.070;2023-07-02T07:02:42;20.00;99.90
11264;DHT22;5689;48.798;9.070;2023-07-02T07:05:10;20.60;99.90
11264;DHT22;5689;48.798;9.070;2023-07-02T07:07:38;20.00;99.90
11264;DHT22;5689;48.798;9.070;2023-07-02T07:10:07;20.50;99.90
11264;DHT22;5689;48.798;9.070;2023-07-02T07:12:35;21.00;99.90
11264;DHT22;5689;48.798;9.070;2023-07-02T07:15:05;21.40;99.90
11264;DHT22;5689;48.798;9.070;2023-07-02T07:17:34;20.60;99.90
11264;DHT22;5689;48.798;9.070;2023-07-02T07:20:03;21.10;99.90
11264;DHT22;5689;48.798;9.070;2023-07-02T07:22:32;21.60;99.90
11264;DHT22;5689;48.798;9.070;2023-07-02T07:25:01;21.50;99.90
11264;DHT22;5689;48.798;9.070;2023-07-02T07:27:29;22.20;99.90
11264;DHT22;5689;48.798;9.070;2023-07-02T07:29:57;23.00;98.50
11264;DHT22;5689;48.798;9.070;2023-07-02T07:32:25;22.80;96.80
11264;DHT22;5689;48.798;9.070;2023-07-02T07:34:54;22.60;96.70
11264;DHT22;5689;48.798;9.070;2023-07-02T07:37:23;22.70;96.50
11264;DHT22;5689;48.798;9.070;2023-07-02T07:39:51;21.90;96.50
11264;DHT22;5689;48.798;9.070;2023-07-02T07:42:19;21.30;97.10
11264;DHT22;5689;48.798;9.070;2023-07-02T07:44:48;20.80;97.90
11264;DHT22;5689;48.798;9.070;2023-07-02T07:47:16;21.20;96.80
11264;DHT22;5689;48.798;9.070;2023-07-02T07:49:44;21.10;97.50
11264;DHT22;5689;48.798;9.070;2023-07-02T07:52:14;21.50;98.10
11264;DHT22;5689;48.798;9.070;2023-07-02T07:54:42;21.70;96.60
11264;DHT22;5689;48.798;9.070;2023-07-02T07:57:10;21.30;96.80
11264;DHT22;5689;48.798;9.070;2023-07-02T07:59:38;20.90;98.10
11264;DHT22;5689;48.798;9.070;2023-07-02T08:02:06;21.40;96.50
11264;DHT22;5689;48.798;9.070;2023-07-02T08:04:34;21.00;96.30
11264;DHT22;5689;48.798;9.070;2023-07-02T08:07:02;21.50;95.90
11264;DHT22;5689;48.798;9.070;2023-07-02T08:09:32;22.30;94.70
11264;DHT22;5689;48.798;9.070;2023-07-02T08:12:00;22.50;95.00
11264;DHT22;5689;48.798;9.070;2023-07-02T08:14:29;23.20;93.40
11264;DHT22;5689;48.798;9.070;2023-07-02T08:16:57;23.00;93.40
11264;DHT22;5689;48.798;9.070;2023-07-02T08:19:25;21.60;94.70
11264;DHT22;5689;48.798;9.070;2023-07-02T08:21:54;21.40;94.80
11264;DHT22;5689;48.798;9.070;2023-07-02T08:24:24;21.60;95.50
11264;DHT22;5689;48.798;9.070;2023-07-02T08:26:53;22.10;94.50
11264;DHT22;5689;48.798;9.070;2023-07-02T08:29:21;22.10;94.70
11264;DHT22;5689;48.798;9.070;2023-07-02T08:31:51;22.20;94.30
11264;DHT22;5689;48.798;9.070;2023-07-02T08:34:19;23.10;93.20
11264;DHT22;5689;48.798;9.070;2023-07-02T08:36:47;24.00;91.90
11264;DHT22;5689;48.798;9.070;2023-07-02T08:39:15;24.80;90.10
11264;DHT22;5689;48.798;9.070;2023-07-02T08:41:44;24.70;90.30
11264;DHT22;5689;48.798;9.070;2023-07-02T08:44:14;23.40;91.10
11264;DHT22;5689;48.798;9.070;2023-07-02T08:46:42;23.80;89.80
11264;DHT22;5689;48.798;9.070;2023-07-02T08:49:10;24.60;90.40
11264;DHT22;5689;48.798;9.070;2023-07-02T08:51:39;25.00;85.70
11264;DHT22;5689;48.798;9.070;2023-07-02T08:54:07;24.60;84.90
11264;DHT22;5689;48.798;9.070;2023-07-02T08:56:35;24.70;86.00
11264;DHT22;5689;48.798;9.070;2023-07-02T08:59:06;26.40;82.90
11264;DHT22;5689;48.798;9.070;2023-07-02T09:01:46;27.40;77.10
11264;DHT22;5689;48.798;9.070;2023-07-02T09:04:18;25.70;80.30
11264;DHT22;5689;48.798;9.070;2023-07-02T09:06:47;25.90;78.30
11264;DHT22;5689;48.798;9.070;2023-07-02T09:09:15;27.10;76.90
11264;DHT22;5689;48.798;9.070;2023-07-02T09:11:47;27.10;74.50
11264;DHT22;5689;48.798;9.070;2023-07-02T09:14:27;26.20;76.60
11264;DHT22;5689;48.798;9.070;2023-07-02T09:17:03;24.80;79.00
11264;DHT22;5689;48.798;9.070;2023-07-02T09:19:32;25.60;80.20
11264;DHT22;5689;48.798;9.070;2023-07-02T09:22:01;26.20;76.90
11264;DHT22;5689;48.798;9.070;2023-07-02T09:24:30;26.70;75.00
11264;DHT22;5689;48.798;9.070;2023-07-02T09:27:01;27.20;74.00
11264;DHT22;5689;48.798;9.070;2023-07-02T09:29:31;27.00;72.40
11264;DHT22;5689;48.798;9.070;2023-07-02T09:32:01;25.90;75.80
11264;DHT22;5689;48.798;9.070;2023-07-02T09:34:37;25.70;75.20
11264;DHT22;5689;48.798;9.070;2023-07-02T09:37:07;25.90;78.10
11264;DHT22;5689;48.798;9.070;2023-07-02T09:39:35;27.20;73.40
11264;DHT22;5689;48.798;9.070;2023-07-02T09:42:06;26.40;75.90
11264;DHT22;5689;48.798;9.070;2023-07-02T09:44:35;25.70;76.40
11264;DHT22;5689;48.798;9.070;2023-07-02T09:47:04;25.00;78.30
11264;DHT22;5689;48.798;9.070;2023-07-02T09:49:35;25.30;78.80
11264;DHT22;5689;48.798;9.070;2023-07-02T09:52:06;26.50;75.50
11264;DHT22;5689;48.798;9.070;2023-07-02T09:54:34;27.20;73.20
11264;DHT22;5689;48.798;9.070;2023-07-02T09:57:03;26.40;75.30
11264;DHT22;5689;48.798;9.070;2023-07-02T09:59:32;25.40;77.90
11264;DHT22;5689;48.798;9.070;2023-07-02T10:02:01;25.20;78.20
11264;DHT22;5689;48.798;9.070;2023-07-02T10:04:41;24.20;81.40
11264;DHT22;5689;48.798;9.070;2023-07-02T10:07:09;23.00;83.00
11264;DHT22;5689;48.798;9.070;2023-07-02T10:09:39;23.50;84.20
11264;DHT22;5689;48.798;9.070;2023-07-02T10:12:17;22.50;84.50
11264;DHT22;5689;48.798;9.070;2023-07-02T10:14:47;22.20;87.20
11264;DHT22;5689;48.798;9.070;2023-07-02T10:17:26;22.70;84.80
11264;DHT22;5689;48.798;9.070;2023-07-02T10:19:57;23.20;86.40
11264;DHT22;5689;48.798;9.070;2023-07-02T10:22:26;25.30;82.80
11264;DHT22;5689;48.798;9.070;2023-07-02T10:24:55;26.00;77.90
11264;DHT22;5689;48.798;9.070;2023-07-02T10:27:33;24.70;78.60
11264;DHT22;5689;48.798;9.070;2023-07-02T10:30:03;23.90;81.30
11264;DHT22;5689;48.798;9.070;2023-07-02T10:32:32;24.00;80.60
11264;DHT22;5689;48.798;9.070;2023-07-02T10:35:12;25.00;80.40
11264;DHT22;5689;48.798;9.070;2023-07-02T10:37:40;26.00;75.70
11264;DHT22;5689;48.798;9.070;2023-07-02T10:40:09;25.60;76.10
11264;DHT22;5689;48.798;9.070;2023-07-02T10:42:47;26.60;77.20
11264;DHT22;5689;48.798;9.070;2023-07-02T10:45:15;27.60;70.40
11264;DHT22;5689;48.798;9.070;2023-07-02T10:47:44;28.30;70.70
11264;DHT22;5689;48.798;9.070;2023-07-02T10:50:18;29.00;66.80
11264;DHT22;5689;48.798;9.070;2023-07-02T10:52:47;28.30;66.20
11264;DHT22;5689;48.798;9.070;2023-07-02T10:55:17;28.50;67.90
11264;DHT22;5689;48.798;9.070;2023-07-02T10:57:47;28.40;68.80
11264;DHT22;5689;48.798;9.070;2023-07-02T11:00:15;27.70;69.10
11264;DHT22;5689;48.798;9.070;2023-07-02T11:02:43;29.60;64.80
11264;DHT22;5689;48.798;9.070;2023-07-02T11:05:12;30.20;61.80
11264;DHT22;5689;48.798;9.070;2023-07-02T11:07:41;30.10;61.40
11264;DHT22;5689;48.798;9.070;2023-07-02T11:10:16;29.80;61.40
11264;DHT22;5689;48.798;9.070;2023-07-02T11:12:44;29.70;61.60
11264;DHT22;5689;48.798;9.070;2023-07-02T11:15:14;28.70;62.40
11264;DHT22;5689;48.798;9.070;2023-07-02T11:17:43;27.80;64.60
11264;DHT22;5689;48.798;9.070;2023-07-02T11:20:13;27.70;64.40
11264;DHT22;5689;48.798;9.070;2023-07-02T11:22:42;25.90;70.30
11264;DHT22;5689;48.798;9.070;2023-07-02T11:25:16;27.20;66.10
11264;DHT22;5689;48.798;9.070;2023-07-02T11:27:47;29.30;61.40
11264;DHT22;5689;48.798;9.070;2023-07-02T11:30:15;29.90;60.30
11264;DHT22;5689;48.798;9.070;2023-07-02T11:32:51;28.50;61.60
11264;DHT22;5689;48.798;9.070;2023-07-02T11:35:20;26.70;65.70
11264;DHT22;5689;48.798;9.070;2023-07-02T11:37:49;26.90;66.90
11264;DHT22;5689;48.798;9.070;2023-07-02T11:40:18;28.70;63.10
11264;DHT22;5689;48.798;9.070;2023-07-02T11:42:46;29.70;62.60
11264;DHT22;5689;48.798;9.070;2023-07-02T11:45:14;29.40;63.40
11264;DHT22;5689;48.798;9.070;2023-07-02T11:47:43;32.00;59.70
11264;DHT22;5689;48.798;9.070;2023-07-02T11:50:11;30.70;58.80
11264;DHT22;5689;48.798;9.070;2023-07-02T11:52:46;29.50;59.30
11264;DHT22;5689;48.798;9.070;2023-07-02T11:55:16;28.70;59.50
11264;DHT22;5689;48.798;9.070;2023-07-02T11:57:44;26.70;62.30
11264;DHT22;5689;48.798;9.070;2023-07-02T12:00:13;26.60;64.00
11264;DHT22;5689;48.798;9.070;2023-07-02T12:02:42;27.00;62.40
11264;DHT22;5689;48.798;9.070;2023-07-02T12:05:10;25.90;65.30
11264;DHT22;5689;48.798;9.070;2023-07-02T12:07:39;27.80;63.80
11264;DHT22;5689;48.798;9.070;2023-07-02T12:10:07;28.80;58.70
11264;DHT22;5689;48.798;9.070;2023-07-02T12:12:37;29.40;57.40
11264;DHT22;5689;48.798;9.070;2023-07-02T12:15:05;28.50;58.50
11264;DHT22;5689;48.798;9.070;2023-07-02T12:17:34;28.60;59.60
11264;DHT22;5689;48.798;9.070;2023-07-02T12:20:02;29.00;58.00
11264;DHT22;5689;48.798;9.070;2023-07-02T12:22:30;28.20;58.80
11264;DHT22;5689;48.798;9.070;2023-07-02T12:24:58;29.50;58.70
11264;DHT22;5689;48.798;9.070;2023-07-02T12:27:26;30.10;56.00
11264;DHT22;5689;48.798;9.070;2023-07-02T12:29:56;30.00;56.70
11264;DHT22;5689;48.798;9.070;2023-07-02T12:32:24;29.20;57.70
11264;DHT22;5689;48.798;9.070;2023-07-02T12:34:52;30.70;55.50
11264;DHT22;5689;48.798;9.070;2023-07-02T12:37:20;32.10;52.10
11264;DHT22;5689;48.798;9.070;2023-07-02T12:39:48;31.60;55.50
11264;DHT22;5689;48.798;9.070;2023-07-02T12:42:16;30.80;54.00
11264;DHT22;5689;48.798;9.070;2023-07-02T12:44:44;30.50;55.50
11264;DHT22;5689;48.798;9.070;2023-07-02T12:47:14;30.60;54.50
11264;DHT22;5689;48.798;9.070;2023-07-02T12:49:41;30.70;54.40
11264;DHT22;5689;48.798;9.070;2023-07-02T12:52:10;31.00;54.50
11264;DHT22;5689;48.798;9.070;2023-07-02T12:54:38;33.00;51.50
11264;DHT22;5689;48.798;9.070;2023-07-02T12:57:06;33.60;48.90
11264;DHT22;5689;48.798;9.070;2023-07-02T12:59:34;33.00;50.20
11264;DHT22;5689;48.798;9.070;2023-07-02T13:02:02;32.00;50.90
11264;DHT22;5689;48.798;9.070;2023-07-02T13:04:31;31.60;50.00
11264;DHT22;5689;48.798;9.070;2023-07-02T13:06:59;30.80;51.70
11264;DHT22;5689;48.798;9.070;2023-07-02T13:09:27;30.50;53.30
11264;DHT22;5689;48.798;9.070;2023-07-02T13:11:55;32.40;50.20
11264;DHT22;5689;48.798;9.070;2023-07-02T13:14:23;31.50;52.80
11264;DHT22;5689;48.798;9.070;2023-07-02T13:16:51;32.20;52.10
11264;DHT22;5689;48.798;9.070;2023-07-02T13:19:19;31.40;53.50
11264;DHT22;5689;48.798;9.070;2023-07-02T13:21:48;30.70;52.60
11264;DHT22;5689;48.798;9.070;2023-07-02T13:24:16;30.40;53.00
11264;DHT22;5689;48.798;9.070;2023-07-02T13:26:44;30.30;53.40
11264;DHT22;5689;48.798;9.070;2023-07-02T13:29:13;32.00;51.90
11264;DHT22;5689;48.798;9.070;2023-07-02T13:31:41;31.40;53.00
11264;DHT22;5689;48.798;9.070;2023-07-02T13:34:09;32.10;51.10
11264;DHT22;5689;48.798;9.070;2023-07-02T13:36:37;31.40;52.50
11264;DHT22;5689;48.798;9.070;2023-07-02T13:39:07;31.40;52.10
11264;DHT22;5689;48.798;9.070;2023-07-02T13:41:35;31.50;50.60
11264;DHT22;5689;48.798;9.070;2023-07-02T13:44:03;30.70;52.30
11264;DHT22;5689;48.798;9.070;2023-07-02T13:46:31;30.80;53.10
11264;DHT22;5689;48.798;9.070;2023-07-02T13:48:59;31.10;51.80
11264;DHT22;5689;48.798;9.070;2023-07-02T13:51:27;31.50;52.90
11264;DHT22;5689;48.798;9.070;2023-07-02T13:53:55;30.90;53.90
11264;DHT22;5689;48.798;9.070;2023-07-02T13:56:25;32.10;50.30
11264;DHT22;5689;48.798;9.070;2023-07-02T13:59:02;31.80;51.00
11264;DHT22;5689;48.798;9.070;2023-07-02T14:01:30;32.10;51.30
11264;DHT22;5689;48.798;9.070;2023-07-02T14:03:59;32.40;50.00
11264;DHT22;5689;48.798;9.070;2023-07-02T14:06:27;32.10;52.50
11264;DHT22;5689;48.798;9.070;2023-07-02T14:08:55;30.10;54.40
11264;DHT22;5689;48.798;9.070;2023-07-02T14:11:25;31.90;50.40
11264;DHT22;5689;48.798;9.070;2023-07-02T14:13:54;31.90;49.60
11264;DHT22;5689;48.798;9.070;2023-07-02T14:16:24;30.40;52.90
11264;DHT22;5689;48.798;9.070;2023-07-02T14:18:52;32.00;50.70
11264;DHT22;5689;48.798;9.070;2023-07-02T14:21:21;31.80;51.80
11264;DHT22;5689;48.798;9.070;2023-07-02T14:23:49;30.20;53.80
11264;DHT22;5689;48.798;9.070;2023-07-02T14:26:17;30.60;53.10
11264;DHT22;5689;48.798;9.070;2023-07-02T14:28:45;33.00;49.20
11264;DHT22;5689;48.798;9.070;2023-07-02T14:31:13;32.60;49.60
11264;DHT22;5689;48.798;9.070;2023-07-02T14:33:42;31.20;50.90
11264;DHT22;5689;48.798;9.070;2023-07-02T14:36:11;29.70;52.40
11264;DHT22;5689;48.798;9.070;2023-07-02T14:38:39;30.50;52.30
11264;DHT22;5689;48.798;9.070;2023-07-02T14:41:07;31.20;50.80
11264;DHT22;5689;48.798;9.070;2023-07-02T14:43:35;32.10;50.70
11264;DHT22;5689;48.798;9.070;2023-07-02T14:46:04;32.20;49.70
11264;DHT22;5689;48.798;9.070;2023-07-02T14:48:35;30.90;51.50
11264;DHT22;5689;48.798;9.070;2023-07-02T14:51:06;30.30;52.30
11264;DHT22;5689;48.798;9.070;2023-07-02T14:53:34;29.90;53.40
11264;DHT22;5689;48.798;9.070;2023-07-02T14:56:03;29.40;54.00
11264;DHT22;5689;48.798;9.070;2023-07-02T14:58:31;29.70;52.90
11264;DHT22;5689;48.798;9.070;2023-07-02T15:00:59;29.10;54.00
11264;DHT22;5689;48.798;9.070;2023-07-02T15:03:28;30.00;51.80
11264;DHT22;5689;48.798;9.070;2023-07-02T15:06:08;29.40;53.40
11264;DHT22;5689;48.798;9.070;2023-07-02T15:08:36;28.40;54.90
11264;DHT22;5689;48.798;9.070;2023-07-02T15:11:04;27.30;56.90
11264;DHT22;5689;48.798;9.070;2023-07-02T15:13:33;27.60;56.80
11264;DHT22;5689;48.798;9.070;2023-07-02T15:16:01;27.80;56.50
11264;DHT22;5689;48.798;9.070;2023-07-02T15:18:29;27.60;57.20
11264;DHT22;5689;48.798;9.070;2023-07-02T15:20:57;27.30;57.00
11264;DHT22;5689;48.798;9.070;2023-07-02T15:23:27;26.90;58.00
11264;DHT22;5689;48.798;9.070;2023-07-02T15:25:57;26.90;59.30
11264;DHT22;5689;48.798;9.070;2023-07-02T15:28:26;27.10;58.70
11264;DHT22;5689;48.798;9.070;2023-07-02T15:30:56;27.50;59.40
11264;DHT22;5689;48.798;9.070;2023-07-02T15:33:24;27.00;57.70
11264;DHT22;5689;48.798;9.070;2023-07-02T15:35:52;27.20;59.00
11264;DHT22;5689;48.798;9.070;2023-07-02T15:38:21;27.10;59.00
11264;DHT22;5689;48.798;9.070;2023-07-02T15:41:06;26.70;58.80
11264;DHT22;5689;48.798;9.070;2023-07-02T15:43:34;26.70;58.60
11264;DHT22;5689;48.798;9.070;2023-07-02T15:46:02;26.60;59.30
11264;DHT22;5689;48.798;9.070;2023-07-02T15:48:30;27.00;57.90
11264;DHT22;5689;48.798;9.070;2023-07-02T15:50:59;26.80;58.50
11264;DHT22;5689;48.798;9.070;2023-07-02T15:53:27;26.60;59.20
11264;DHT22;5689;48.798;9.070;2023-07-02T15:55:57;26.50;58.50